• Join FlightAware (Why Join?)
  • Login
  • US Flag 
07:04AM EST


 

Airport Tracker/Info


-or-


 

Live Flight TrackerFlight Track Log ✈ N39503 ✈ 13-Jul-2014 ✈ KRAP - KFNL

Flight Track Log - Related Links

Times and Time Zones

All times are in EDT time to prevent confusion due to time zone crossing. See the N39503 flight status page for this flight to view local times or setup timezone preferences in your user account.

Time Position Orientation Groundspeed Altitude Reporting Facility
EDT Latitude Longitude Course Direction KTS MPH feet Rate Location/Type
12:38PM 44.0533 -103.0658 180° South 87 100 3,600  Level Denver Center
12:39PM 44.0767 -103.0800 336° Northwest 99 114 4,300 614 Climbing Denver Center
12:40PM 44.0781 -103.0472 87° East 128 147 4,900 567 Climbing Denver Center
12:41PM 44.0439 -103.0303 160° South 125 144 5,500 545 Climbing Denver Center
12:42PM 44.0119 -103.0306 180° South 125 144 6,000 541 Climbing Denver Center
12:43PM 43.9747 -103.0381 188° South 125 144 6,600 496 Climbing Denver Center
12:44PM 43.8247 -103.1845 180° South  Level Estimated
12:44PM 43.9442 -103.0467 191° South 123 142 7,000  Level Denver Center
12:45PM 43.9286 -103.0469 181° South 95 109 7,300 448 Climbing Denver Center
12:45PM 43.9075 -103.0572 199° South 118 136 7,500 387 Climbing Denver Center
12:46PM 43.8975 -103.0553 172° South 117 135 7,700 500 Climbing Denver Center
12:46PM 43.8719 -103.0614 190° South 123 142 8,000 484 Climbing Denver Center
12:47PM 43.8600 -103.0619 182° South 117 135 8,200 492 Climbing Denver Center
12:47PM 43.8383 -103.0647 185° South 122 140 8,500 484 Climbing Denver Center
12:48PM 43.8281 -103.0642 178° South 117 135 8,700 490 Climbing Denver Center
12:48PM 43.8131 -103.0661 185° South 118 136 8,900 381 Climbing Denver Center
12:49PM 43.7903 -103.0669 182° South 117 135 9,100 400 Climbing Denver Center
12:49PM 43.7775 -103.0703 191° South 120 138 9,300 393 Climbing Denver Center
12:50PM 43.7583 -103.0672 173° South 117 135 9,500 295 Climbing Denver Center
12:50PM 43.7431 -103.0681 182° South 124 143 9,600 387 Climbing Denver Center
12:51PM 43.7200 -103.0658 176° South 118 136 9,900 300 Climbing Denver Center
12:51PM 43.7072 -103.0694 192° South 124 143 9,900 194 Level Denver Center
12:52PM 43.6861 -103.0689 179° South 122 140 10,100 173 Climbing Denver Center
12:53PM 43.6461 -103.0817 193° South 128 147 10,200 -48 Climbing Denver Center
12:54PM 43.6056 -103.0939 192° South 142 163 10,000 -96 Descending Denver Center
12:55PM 43.5611 -103.1008 186° South 155 178 10,000  Level Denver Center
12:56PM 43.5117 -103.1100 188° South 160 184 10,000  Level Denver Center
12:57PM 43.4717 -103.1178 188° South 159 183 10,000  Level Denver Center
12:58PM 43.4267 -103.1272 189° South 152 175 10,000  Level Denver Center
12:59PM 43.3869 -103.1339 187° South 152 175 10,000  Level Denver Center
01:00PM 43.3406 -103.1422 187° South 152 175 10,000  Level Denver Center
01:01PM 43.3006 -103.1525 191° South 152 175 10,000  Level Denver Center
01:02PM 43.2544 -103.1636 190° South 152 175 10,000  Level Denver Center
01:03PM 43.2139 -103.1736 190° South 152 175 10,000  Level Denver Center
01:04PM 43.1672 -103.1828 188° South 152 175 10,000  Level Denver Center
01:05PM 43.1275 -103.1986 196° South 152 175 10,000  Level Denver Center
01:06PM 43.0900 -103.2364 216° Southwest 153 176 10,000  Level Denver Center
01:07PM 43.0578 -103.2661 214° Southwest 151 174 10,000  Level Denver Center
01:09PM 43.0153 -103.2914 204° Southwest 151 174 10,000  Level Denver Center
01:10PM 42.9781 -103.3128 203° Southwest 150 173 10,000  Level Denver Center
01:11PM 42.9378 -103.3461 211° Southwest 150 173 10,000  Level Denver Center
01:12PM 42.9025 -103.3725 209° Southwest 151 174 10,000  Level Denver Center
01:13PM 42.8664 -103.3958 205° Southwest 150 173 10,000  Level Denver Center
01:14PM 42.8247 -103.4236 206° Southwest 150 173 10,000  Level Denver Center
01:15PM 42.7911 -103.4492 209° Southwest 150 173 10,000  Level Denver Center
01:16PM 42.7497 -103.4775 207° Southwest 150 173 10,000  Level Denver Center
01:17PM 42.7139 -103.4994 204° Southwest 150 173 10,000  Level Denver Center
01:18PM 42.6742 -103.5256 206° Southwest 149 171 10,000  Level Denver Center
01:19PM 42.6414 -103.5508 210° Southwest 147 169 10,000  Level Denver Center
01:20PM 42.6028 -103.5800 209° Southwest 145 167 10,000  Level Denver Center
01:21PM 42.5706 -103.6019 207° Southwest 142 163 10,000  Level Denver Center
01:22PM 42.5317 -103.6297 208° Southwest 141 162 10,000  Level Denver Center
01:23PM 42.4978 -103.6564 210° Southwest 141 162 10,000  Level Denver Center
01:24PM 42.4569 -103.6867 209° Southwest 144 166 10,000  Level Denver Center
01:25PM 42.4206 -103.7081 203° Southwest 145 167 10,000  Level Denver Center
01:26PM 42.3803 -103.7336 205° Southwest 145 167 10,000  Level Denver Center
01:27PM 42.3472 -103.7594 210° Southwest 145 167 10,000  Level Denver Center
01:28PM 42.3139 -103.7844 209° Southwest 145 167 10,000  Level Denver Center
01:29PM 42.2756 -103.8122 208° Southwest 145 167 10,000  Level Denver Center
01:30PM 42.2419 -103.8336 205° Southwest 144 166 10,000  Level Denver Center
01:31PM 42.2039 -103.8578 205° Southwest 140 161 10,000  Level Denver Center
01:32PM 42.1706 -103.8811 207° Southwest 140 161 10,000  Level Denver Center
01:33PM 42.1314 -103.9078 207° Southwest 140 161 10,000  Level Denver Center
01:34PM 42.0964 -103.9306 206° Southwest 140 161 10,000  Level Denver Center
01:35PM 42.0569 -103.9583 208° Southwest 140 161 10,000  Level Denver Center
01:36PM 42.0233 -103.9803 206° Southwest 140 161 10,000  Level Denver Center
01:38PM 41.9850 -104.0069 207° Southwest 140 161 10,000 48 Level Denver Center
01:39PM 41.9517 -104.0281 205° Southwest 140 161 10,100 48 Climbing Denver Center
01:40PM 41.9131 -104.0542 207° Southwest 140 161 10,100  Level Denver Center
01:41PM 41.8803 -104.0781 208° Southwest 140 161 10,100  Level Denver Center
01:42PM 41.8478 -104.1028 210° Southwest 140 161 10,100  Level Denver Center
01:43PM 41.8081 -104.1281 205° Southwest 140 161 10,100  Level Denver Center
01:44PM 41.7761 -104.1506 208° Southwest 140 161 10,100 -48 Level Denver Center
01:45PM 41.7369 -104.1783 208° Southwest 140 161 10,000 -48 Descending Denver Center
01:46PM 41.7025 -104.2022 207° Southwest 140 161 10,000  Level Denver Center
01:47PM 41.6633 -104.2286 207° Southwest 140 161 10,000  Level Denver Center
01:48PM 41.6289 -104.2492 204° Southwest 141 162 10,000  Level Denver Center
01:49PM 41.5900 -104.2761 202° Southwest 141 162 10,000  Level Denver Center
01:50PM 41.5709 -104.2809 202° Southwest  Level FlightAware Approximate
01:50PM 41.5583 -104.2989 208° Southwest 140 161 10,000  Level Denver Center
01:51PM 41.5200 -104.3272 209° Southwest 140 161 10,000  Level Denver Center
01:52PM 41.4869 -104.3478 205° Southwest 139 160 10,000 48 Level Denver Center
01:53PM 41.4475 -104.3714 204° Southwest 139 160 10,100  Climbing Denver Center
02:10PM 40.9333 -104.8667 206° Southwest 144 166 10,000 -5 Descending Denver TRACON
02:11PM 40.8456 -104.7419 207° Southwest  Level FlightAware Approximate
02:11PM 40.9000 -104.8833 201° Southwest 138 159 10,000  Level Denver TRACON
02:12PM 40.8117 -104.7644 207° Southwest  Level FlightAware Approximate
02:13PM 40.7778 -104.7869 206° Southwest  Level FlightAware Approximate
02:13PM 40.8584 -104.8942 191° South  Level FlightAware Approximate
02:14PM 40.7438 -104.8092 206° Southwest  Level FlightAware Approximate
02:15PM 40.7098 -104.8314 206° Southwest  Level FlightAware Approximate
02:16PM 40.6757 -104.8535 206° Southwest  Level FlightAware Approximate
02:20PM 40.5978 -104.9619 191° South  Level FlightAware Approximate
02:21PM 40.5605 -104.9715 191° South  Level FlightAware Approximate
02:22PM 40.5239 -104.9849 206° Southwest  Level Estimated
02:23PM 40.4874 -104.9983 196° South  Level Estimated